createdAt,value
2018-11-07T00:02:00.165Z,9.80
2018-11-07T00:04:28.540Z,9.20
2018-11-07T00:06:56.862Z,10.07
2018-11-07T00:09:25.227Z,8.60
2018-11-07T00:11:53.501Z,10.00
2018-11-07T00:14:21.771Z,10.40
2018-11-07T00:16:50.065Z,11.17
2018-11-07T00:19:18.538Z,9.13
2018-11-07T00:21:46.954Z,10.07
2018-11-07T00:24:15.302Z,10.07
2018-11-07T00:26:43.709Z,10.03
2018-11-07T00:29:12.057Z,8.23
2018-11-07T00:31:40.495Z,9.33
2018-11-07T00:34:08.815Z,9.10
2018-11-07T00:36:37.208Z,8.80
2018-11-07T00:39:07.011Z,8.93
2018-11-07T00:41:35.649Z,9.57
2018-11-07T00:44:04.317Z,10.33
2018-11-07T00:46:32.767Z,8.77
2018-11-07T00:49:01.502Z,9.10
2018-11-07T00:51:30.141Z,9.67
2018-11-07T00:53:58.508Z,10.10
2018-11-07T00:56:27.045Z,10.60
2018-11-07T00:58:55.370Z,8.80
2018-11-07T01:01:23.748Z,13.37
2018-11-07T01:03:52.611Z,12.40
2018-11-07T01:06:20.924Z,12.63
2018-11-07T01:08:50.080Z,10.83
2018-11-07T01:11:18.498Z,12.73
2018-11-07T01:13:47.037Z,10.27
2018-11-07T01:16:15.334Z,11.37
2018-11-07T01:18:43.776Z,10.90
2018-11-07T01:21:12.168Z,7.80
2018-11-07T01:23:40.527Z,9.17
2018-11-07T01:26:08.954Z,11.23
2018-11-07T01:28:37.318Z,8.83
2018-11-07T01:31:06.034Z,8.57
2018-11-07T01:33:38.652Z,9.70
2018-11-07T01:36:11.709Z,8.90
2018-11-07T01:38:40.245Z,10.50
2018-11-07T01:41:08.701Z,10.03
2018-11-07T01:43:37.034Z,10.33
2018-11-07T01:46:05.318Z,11.17
2018-11-07T01:48:33.642Z,11.17
2018-11-07T01:51:02.103Z,10.40
2018-11-07T01:53:30.711Z,10.37
2018-11-07T01:55:59.123Z,10.77
2018-11-07T01:58:27.543Z,10.10
2018-11-07T02:00:55.960Z,11.90
2018-11-07T02:03:24.542Z,9.77
2018-11-07T02:05:52.876Z,9.57
2018-11-07T02:08:21.289Z,9.60
2018-11-07T02:10:49.678Z,9.43
2018-11-07T02:13:18.070Z,9.90
2018-11-07T02:15:46.488Z,10.07
2018-11-07T02:18:14.902Z,10.87
2018-11-07T02:20:43.269Z,10.30
2018-11-07T02:23:11.643Z,9.30
2018-11-07T02:25:39.984Z,11.40
2018-11-07T02:28:08.310Z,13.10
2018-11-07T02:30:36.754Z,9.70
2018-11-07T02:33:05.037Z,11.43
2018-11-07T02:35:33.428Z,11.33
2018-11-07T02:38:01.799Z,10.70
2018-11-07T02:40:30.153Z,10.07
2018-11-07T02:42:58.505Z,11.93
2018-11-07T02:45:26.873Z,11.93
2018-11-07T02:47:55.323Z,10.40
2018-11-07T02:50:23.896Z,11.10
2018-11-07T02:52:52.315Z,11.70
2018-11-07T02:55:20.636Z,10.40
2018-11-07T02:57:48.918Z,11.37
2018-11-07T03:00:17.250Z,9.53
2018-11-07T03:02:45.605Z,9.23
2018-11-07T03:05:14.008Z,9.80
2018-11-07T03:07:42.438Z,10.87
2018-11-07T03:10:12.357Z,9.73
2018-11-07T03:12:41.096Z,8.83
2018-11-07T03:15:10.026Z,9.57
2018-11-07T03:17:38.829Z,10.40
2018-11-07T03:20:08.853Z,8.87
2018-11-07T03:22:37.204Z,10.90
2018-11-07T03:25:05.903Z,10.63
2018-11-07T03:27:34.784Z,10.97
2018-11-07T03:30:03.245Z,9.93
2018-11-07T03:32:32.599Z,10.73
2018-11-07T03:35:00.982Z,10.17
2018-11-07T03:37:29.343Z,10.10
2018-11-07T03:39:57.854Z,8.30
2018-11-07T03:42:25.994Z,9.23
2018-11-07T03:44:54.267Z,10.83
2018-11-07T03:47:22.561Z,10.43
2018-11-07T03:49:50.923Z,10.90
2018-11-07T03:52:19.198Z,10.70
2018-11-07T03:54:47.464Z,10.40
2018-11-07T03:57:15.745Z,9.33
2018-11-07T03:59:44.025Z,10.00
2018-11-07T04:02:12.287Z,8.47
2018-11-07T04:04:40.594Z,11.73
2018-11-07T04:07:08.942Z,11.33
2018-11-07T04:09:38.353Z,9.80
2018-11-07T04:12:06.622Z,10.83
2018-11-07T04:17:38.177Z,14.57
2018-11-07T04:20:07.318Z,12.33
2018-11-07T04:22:35.705Z,12.23
2018-11-07T04:25:04.173Z,10.47
2018-11-07T04:27:32.526Z,10.63
2018-11-07T04:30:00.973Z,9.90
2018-11-07T04:32:29.302Z,11.10
2018-11-07T04:34:57.663Z,11.00
2018-11-07T04:37:25.964Z,11.00
2018-11-07T04:39:54.329Z,10.60
2018-11-07T04:42:22.713Z,9.13
2018-11-07T04:44:51.082Z,9.47
2018-11-07T04:47:19.343Z,10.10
2018-11-07T04:49:47.680Z,12.00
2018-11-07T04:52:16.036Z,10.20
2018-11-07T04:54:44.405Z,11.37
2018-11-07T04:57:12.653Z,10.07
2018-11-07T04:59:40.954Z,11.00
2018-11-07T05:02:09.309Z,9.60
2018-11-07T05:04:37.869Z,9.57
2018-11-07T05:07:06.193Z,12.03
2018-11-07T05:09:34.479Z,10.97
2018-11-07T05:12:02.839Z,10.80
2018-11-07T05:14:31.118Z,11.30
2018-11-07T05:16:59.380Z,11.70
2018-11-07T05:19:27.849Z,10.40
2018-11-07T05:21:56.174Z,10.87
2018-11-07T05:24:24.528Z,9.90
2018-11-07T05:26:52.821Z,10.87
2018-11-07T05:29:21.142Z,10.03
2018-11-07T05:31:49.507Z,11.20
2018-11-07T05:34:17.873Z,10.40
2018-11-07T05:36:46.243Z,11.57
2018-11-07T05:39:15.106Z,10.60
2018-11-07T05:41:43.395Z,11.17
2018-11-07T05:44:11.678Z,10.87
2018-11-07T05:46:40.061Z,11.40
2018-11-07T05:49:08.371Z,9.47
2018-11-07T05:51:36.700Z,8.57
2018-11-07T05:54:05.048Z,9.07
2018-11-07T05:56:33.335Z,8.63
2018-11-07T05:59:01.632Z,9.07
2018-11-07T06:01:30.853Z,9.73
2018-11-07T06:03:59.205Z,10.50
2018-11-07T06:06:27.569Z,9.83
2018-11-07T06:08:55.865Z,10.87
2018-11-07T06:11:24.223Z,10.30
2018-11-07T06:13:52.605Z,9.67
2018-11-07T06:16:20.978Z,11.13
2018-11-07T06:18:49.181Z,10.07
2018-11-07T06:21:17.469Z,9.67
2018-11-07T06:23:46.970Z,11.80
2018-11-07T06:26:15.356Z,10.83
2018-11-07T06:28:43.626Z,12.50
2018-11-07T06:31:12.042Z,9.77
2018-11-07T06:33:40.377Z,10.63
2018-11-07T06:36:08.656Z,10.77
2018-11-07T06:38:37.035Z,10.53
2018-11-07T06:41:05.468Z,8.77
2018-11-07T06:43:33.798Z,8.83
2018-11-07T06:46:02.278Z,8.70
2018-11-07T06:48:30.861Z,9.73
2018-11-07T06:50:59.198Z,9.33
2018-11-07T06:53:27.502Z,10.97
2018-11-07T06:55:55.781Z,11.23
2018-11-07T06:58:24.101Z,10.37
2018-11-07T07:00:52.451Z,10.07
2018-11-07T07:03:20.835Z,10.53
2018-11-07T07:05:49.254Z,11.90
2018-11-07T07:08:17.583Z,11.13
2018-11-07T07:10:45.860Z,11.83
2018-11-07T07:13:14.125Z,11.13
2018-11-07T07:15:45.353Z,9.97
2018-11-07T07:18:13.835Z,10.37
2018-11-07T07:20:42.036Z,10.63
2018-11-07T07:23:10.294Z,9.70
2018-11-07T07:25:38.979Z,9.13
2018-11-07T07:28:07.293Z,10.07
2018-11-07T07:30:35.657Z,11.10
2018-11-07T07:33:04.065Z,10.40
2018-11-07T07:35:32.396Z,10.70
2018-11-07T07:38:00.690Z,10.57
2018-11-07T07:40:28.997Z,10.67
2018-11-07T07:42:57.353Z,9.80
2018-11-07T07:45:25.863Z,9.87
2018-11-07T07:47:54.195Z,8.80
2018-11-07T07:50:22.500Z,10.20
2018-11-07T07:52:50.891Z,10.93
2018-11-07T07:55:19.233Z,10.47
2018-11-07T07:57:47.529Z,11.67
2018-11-07T08:00:17.368Z,10.73
2018-11-07T08:02:48.836Z,10.53
2018-11-07T08:05:17.144Z,11.30
2018-11-07T08:07:45.956Z,11.33
2018-11-07T08:10:15.476Z,10.97
2018-11-07T08:12:44.070Z,10.47
2018-11-07T08:15:12.638Z,12.23
2018-11-07T08:17:41.870Z,11.63
2018-11-07T08:20:11.259Z,10.77
2018-11-07T08:22:39.560Z,11.17
2018-11-07T08:25:07.937Z,11.10
2018-11-07T08:27:36.249Z,11.97
2018-11-07T08:30:05.654Z,13.33
2018-11-07T08:32:33.912Z,13.50
2018-11-07T08:35:02.200Z,12.40
2018-11-07T08:37:30.468Z,15.53
2018-11-07T08:39:58.721Z,13.10
2018-11-07T08:42:27.098Z,13.53
2018-11-07T08:44:55.296Z,13.00
2018-11-07T08:47:23.572Z,14.67
2018-11-07T08:49:51.837Z,15.20
2018-11-07T08:52:20.133Z,15.87
2018-11-07T08:54:48.412Z,14.00
2018-11-07T08:57:16.685Z,13.60
2018-11-07T08:59:44.944Z,15.40
2018-11-07T09:02:13.300Z,13.83
2018-11-07T09:04:41.553Z,12.90
2018-11-07T09:07:09.829Z,12.53
2018-11-07T09:09:38.121Z,15.90
2018-11-07T09:12:06.592Z,15.20
2018-11-07T09:14:34.786Z,15.13
2018-11-07T09:17:03.069Z,15.60
2018-11-07T09:19:31.348Z,14.47
2018-11-07T09:21:59.633Z,14.20
2018-11-07T09:24:27.978Z,14.17
2018-11-07T09:26:56.177Z,14.10
2018-11-07T09:29:24.582Z,14.60
2018-11-07T09:31:52.895Z,14.90
2018-11-07T09:34:21.145Z,13.73
2018-11-07T09:36:49.456Z,14.83
2018-11-07T09:39:17.714Z,14.83
2018-11-07T09:41:45.985Z,13.47
2018-11-07T09:44:14.242Z,14.27
2018-11-07T09:46:42.657Z,13.67
2018-11-07T09:49:11.045Z,15.83
2018-11-07T09:51:39.373Z,15.20
2018-11-07T09:54:07.661Z,14.03
2018-11-07T09:56:36.171Z,15.03
2018-11-07T09:59:04.469Z,14.30
2018-11-07T10:01:32.817Z,13.17
2018-11-07T10:04:01.166Z,13.90
2018-11-07T10:06:29.463Z,13.67
2018-11-07T10:08:57.746Z,12.60
2018-11-07T10:11:26.054Z,14.37
2018-11-07T10:13:54.327Z,14.97
2018-11-07T10:16:22.631Z,14.10
2018-11-07T10:18:50.907Z,12.10
2018-11-07T10:21:19.176Z,11.63
2018-11-07T10:23:47.504Z,13.30
2018-11-07T10:26:15.765Z,12.50
2018-11-07T10:28:44.230Z,11.03
2018-11-07T10:31:12.297Z,10.90
2018-11-07T10:33:40.586Z,13.40
2018-11-07T10:36:08.878Z,13.77
2018-11-07T10:38:37.266Z,13.37
2018-11-07T10:41:05.438Z,15.37
2018-11-07T10:43:33.710Z,13.23
2018-11-07T10:46:02.231Z,16.47
2018-11-07T10:48:31.503Z,15.23
2018-11-07T10:50:59.750Z,12.93
2018-11-07T10:53:28.118Z,12.07
2018-11-07T10:55:56.576Z,14.70
2018-11-07T10:58:24.861Z,14.37
2018-11-07T11:00:58.449Z,13.17
2018-11-07T11:03:28.101Z,12.57
2018-11-07T11:05:56.396Z,12.83
2018-11-07T11:08:24.678Z,14.90
2018-11-07T11:10:52.968Z,12.60
2018-11-07T11:13:21.249Z,12.10
2018-11-07T11:15:49.530Z,13.90
2018-11-07T11:18:17.800Z,12.33
2018-11-07T11:20:46.068Z,12.53
2018-11-07T11:23:14.459Z,11.43
2018-11-07T11:25:42.754Z,12.20
2018-11-07T11:28:10.989Z,11.33
2018-11-07T11:30:40.090Z,12.13
2018-11-07T11:33:08.386Z,12.73
2018-11-07T11:35:36.676Z,11.77
2018-11-07T11:38:05.176Z,11.37
2018-11-07T11:40:33.461Z,13.50
2018-11-07T11:43:14.205Z,14.97
2018-11-07T11:45:48.255Z,11.97
2018-11-07T11:48:16.716Z,10.40
2018-11-07T11:50:45.028Z,10.43
2018-11-07T11:53:13.341Z,11.63
2018-11-07T11:55:41.612Z,9.77
2018-11-07T11:58:09.879Z,10.07
2018-11-07T12:00:38.149Z,9.03
2018-11-07T12:03:06.414Z,9.90
2018-11-07T12:05:34.707Z,9.60
2018-11-07T12:08:03.304Z,9.80
2018-11-07T12:10:31.541Z,9.43
2018-11-07T12:12:59.839Z,9.43
2018-11-07T12:15:28.511Z,10.10
2018-11-07T12:17:57.092Z,8.47
2018-11-07T12:20:25.389Z,7.83
2018-11-07T12:22:53.732Z,8.57
2018-11-07T12:25:22.501Z,8.27
2018-11-07T12:27:50.845Z,10.30
2018-11-07T12:30:20.342Z,8.63
2018-11-07T12:32:49.768Z,8.80
2018-11-07T12:35:18.793Z,9.27
2018-11-07T12:37:47.170Z,9.73
2018-11-07T12:40:16.013Z,10.87
2018-11-07T12:42:44.360Z,10.00
2018-11-07T12:45:13.720Z,9.67
2018-11-07T12:47:42.212Z,8.23
2018-11-07T12:50:17.854Z,9.17
2018-11-07T12:52:46.547Z,8.27
2018-11-07T12:55:15.142Z,7.43
2018-11-07T12:57:43.496Z,7.70
2018-11-07T13:00:18.164Z,9.13
2018-11-07T13:02:46.472Z,10.23
2018-11-07T13:05:15.970Z,9.43
2018-11-07T13:07:45.210Z,10.10
2018-11-07T13:10:14.815Z,9.13
2018-11-07T13:12:44.015Z,9.70
2018-11-07T13:15:12.933Z,10.43
2018-11-07T13:17:41.269Z,10.57
2018-11-07T13:20:11.831Z,10.20
2018-11-07T13:22:40.092Z,10.23
2018-11-07T13:25:09.544Z,12.83
2018-11-07T13:27:37.804Z,13.43
2018-11-07T13:30:12.329Z,11.23
2018-11-07T13:32:40.719Z,10.20
2018-11-07T13:35:10.024Z,11.73
2018-11-07T13:37:39.360Z,11.33
2018-11-07T13:40:09.828Z,9.10
2018-11-07T13:42:38.115Z,11.07
2018-11-07T13:45:08.061Z,9.20
2018-11-07T13:47:36.325Z,9.83
2018-11-07T13:50:04.701Z,8.30
2018-11-07T13:52:32.970Z,10.87
2018-11-07T13:55:01.716Z,7.10
2018-11-07T13:57:31.475Z,6.40
2018-11-07T13:59:59.798Z,7.07
2018-11-07T14:02:44.573Z,9.90
2018-11-07T14:05:13.188Z,9.10
2018-11-07T14:07:41.453Z,9.43
2018-11-07T14:10:12.061Z,10.83
2018-11-07T14:12:41.004Z,10.47
2018-11-07T14:15:11.066Z,9.87
2018-11-07T14:17:39.328Z,10.13
2018-11-07T14:20:07.897Z,9.20
2018-11-07T14:22:36.163Z,9.50
2018-11-07T14:25:04.579Z,11.53
2018-11-07T14:27:33.289Z,10.53
2018-11-07T14:30:01.534Z,10.23
2018-11-07T14:32:30.370Z,9.33
2018-11-07T14:34:58.695Z,9.93
2018-11-07T14:37:27.105Z,11.30
2018-11-07T14:39:56.482Z,10.90
2018-11-07T14:42:24.872Z,11.13
2018-11-07T14:44:53.277Z,10.63
2018-11-07T14:47:21.649Z,11.00
2018-11-07T14:49:50.259Z,10.80
2018-11-07T14:52:18.590Z,10.30
2018-11-07T14:54:46.950Z,11.23
2018-11-07T14:57:15.249Z,12.10
2018-11-07T14:59:43.620Z,11.37
2018-11-07T15:02:12.905Z,11.00
2018-11-07T15:04:41.245Z,10.33
2018-11-07T15:07:09.643Z,10.43
2018-11-07T15:09:38.037Z,10.63
2018-11-07T15:12:06.469Z,9.60
2018-11-07T15:14:34.878Z,10.80
2018-11-07T15:17:03.336Z,10.30
2018-11-07T15:19:31.770Z,10.30
2018-11-07T15:22:00.098Z,10.40
2018-11-07T15:24:28.430Z,11.27
2018-11-07T15:26:56.800Z,11.40
2018-11-07T15:29:25.200Z,11.50
2018-11-07T15:31:53.601Z,11.80
2018-11-07T15:34:21.970Z,12.33
2018-11-07T15:36:50.343Z,12.77
2018-11-07T15:39:18.727Z,19.00
2018-11-07T15:41:47.124Z,16.37
2018-11-07T15:44:15.542Z,16.67
2018-11-07T15:46:43.905Z,13.80
2018-11-07T15:49:12.325Z,25.13
2018-11-07T15:51:41.044Z,30.53
2018-11-07T15:54:09.392Z,31.10
2018-11-07T15:56:37.844Z,23.57
2018-11-07T15:59:06.505Z,17.90
2018-11-07T16:01:34.837Z,16.03
2018-11-07T16:04:03.411Z,17.53
2018-11-07T16:06:31.749Z,17.20
2018-11-07T16:09:00.388Z,15.40
2018-11-07T16:11:29.684Z,16.10
2018-11-07T16:13:58.125Z,16.10
2018-11-07T16:16:27.487Z,18.03
2018-11-07T16:18:56.187Z,16.90
2018-11-07T16:21:30.592Z,21.43
2018-11-07T16:23:59.064Z,16.87
2018-11-07T16:26:27.385Z,16.93
2018-11-07T16:28:55.753Z,15.37
2018-11-07T16:31:24.173Z,16.93
2018-11-07T16:33:52.518Z,24.87
2018-11-07T16:36:20.914Z,15.63
2018-11-07T16:38:49.284Z,13.13
2018-11-07T16:41:17.693Z,13.93
2018-11-07T16:43:46.015Z,13.67
2018-11-07T16:46:14.400Z,13.87
2018-11-07T16:48:42.802Z,13.53
2018-11-07T16:51:11.200Z,12.30
2018-11-07T16:53:39.535Z,12.77
2018-11-07T16:56:07.910Z,10.87
2018-11-07T16:58:36.264Z,12.40
2018-11-07T17:01:04.911Z,13.10
2018-11-07T17:03:33.359Z,12.70
2018-11-07T17:06:01.912Z,11.60
2018-11-07T17:08:30.364Z,11.77
2018-11-07T17:10:58.658Z,11.27
2018-11-07T17:13:27.301Z,12.13
2018-11-07T17:15:56.745Z,12.07
2018-11-07T17:18:25.050Z,11.43
2018-11-07T17:20:53.515Z,13.53
2018-11-07T17:23:21.854Z,11.60
2018-11-07T17:25:50.171Z,11.53
2018-11-07T17:28:18.583Z,11.90
2018-11-07T17:30:46.985Z,12.10
2018-11-07T17:33:15.379Z,11.70
2018-11-07T17:35:43.736Z,14.70
2018-11-07T17:38:12.062Z,14.00
2018-11-07T17:40:40.440Z,14.03
2018-11-07T17:43:08.885Z,14.40
2018-11-07T17:45:37.268Z,15.20
2018-11-07T17:48:06.071Z,13.90
2018-11-07T17:50:34.254Z,13.10
2018-11-07T17:53:02.647Z,12.67
2018-11-07T17:55:31.098Z,12.93
2018-11-07T17:58:06.251Z,12.97
2018-11-07T18:00:35.109Z,12.30
2018-11-07T18:03:03.426Z,13.47
2018-11-07T18:05:31.814Z,16.90
2018-11-07T18:08:00.202Z,16.23
2018-11-07T18:10:28.583Z,13.07
2018-11-07T18:12:56.933Z,11.50
2018-11-07T18:15:25.217Z,11.27
2018-11-07T18:17:53.592Z,10.83
2018-11-07T18:20:22.891Z,11.07
2018-11-07T18:22:53.246Z,12.03
2018-11-07T18:25:21.641Z,11.33
2018-11-07T18:27:49.989Z,11.87
2018-11-07T18:30:18.436Z,11.97
2018-11-07T18:32:47.387Z,14.53
2018-11-07T18:35:17.353Z,13.17
2018-11-07T18:37:45.861Z,13.13
2018-11-07T18:40:16.057Z,13.03
2018-11-07T18:42:45.133Z,13.10
2018-11-07T18:45:13.773Z,13.00
2018-11-07T18:47:44.203Z,13.00
2018-11-07T18:50:14.028Z,13.67
2018-11-07T18:52:42.762Z,14.77
2018-11-07T18:55:12.519Z,15.07
2018-11-07T18:57:41.466Z,13.43
2018-11-07T19:00:12.014Z,13.57
2018-11-07T19:02:42.522Z,14.93
2018-11-07T19:05:11.493Z,32.77
2018-11-07T19:07:39.974Z,21.10
2018-11-07T19:10:10.566Z,16.50
2018-11-07T19:12:39.446Z,17.13
2018-11-07T19:15:09.919Z,15.70
2018-11-07T19:17:40.171Z,14.67
2018-11-07T19:20:09.707Z,17.23
2018-11-07T19:22:38.441Z,18.23
2018-11-07T19:25:09.220Z,17.70
2018-11-07T19:27:38.380Z,17.40
2018-11-07T19:30:14.443Z,18.77
2018-11-07T19:32:45.643Z,17.33
2018-11-07T19:37:53.642Z,16.23
2018-11-07T19:40:24.924Z,15.47
2018-11-07T19:42:53.363Z,15.33
2018-11-07T19:45:22.306Z,17.97
2018-11-07T19:47:51.021Z,16.37
2018-11-07T19:50:20.345Z,17.90
2018-11-07T19:52:49.616Z,17.73
2018-11-07T19:55:23.396Z,22.40
2018-11-07T19:57:57.712Z,18.80
2018-11-07T20:00:26.094Z,17.40
2018-11-07T20:02:54.606Z,15.57
2018-11-07T20:05:23.174Z,16.07
2018-11-07T20:07:51.826Z,17.40
2018-11-07T20:10:27.091Z,16.47
2018-11-07T20:12:55.543Z,18.37
2018-11-07T20:15:31.093Z,21.67
2018-11-07T20:17:59.633Z,21.10
2018-11-07T20:20:27.990Z,19.97
2018-11-07T20:22:57.106Z,19.40
2018-11-07T20:25:25.483Z,19.60
2018-11-07T20:27:53.814Z,19.13
2018-11-07T20:30:22.653Z,17.07
2018-11-07T20:32:51.049Z,15.90
2018-11-07T20:35:25.918Z,16.57
2018-11-07T20:37:54.284Z,16.00
2018-11-07T20:40:23.081Z,15.03
2018-11-07T20:42:51.470Z,14.70
2018-11-07T20:45:20.167Z,14.07
2018-11-07T20:47:48.596Z,13.83
2018-11-07T20:50:18.468Z,16.97
2018-11-07T20:52:47.228Z,17.00
2018-11-07T20:55:16.097Z,16.60
2018-11-07T20:57:45.559Z,15.03
2018-11-07T21:00:26.776Z,16.63
2018-11-07T21:02:55.254Z,13.73
2018-11-07T21:05:23.701Z,13.57
2018-11-07T21:07:52.047Z,13.63
2018-11-07T21:10:21.569Z,14.50
2018-11-07T21:12:50.338Z,15.70
2018-11-07T21:15:19.663Z,14.17
2018-11-07T21:17:48.093Z,13.40
2018-11-07T21:20:16.545Z,11.73
2018-11-07T21:22:44.897Z,13.90
2018-11-07T21:25:13.592Z,13.73
2018-11-07T21:27:41.920Z,12.27
2018-11-07T21:30:11.508Z,13.03
2018-11-07T21:32:40.164Z,14.27
2018-11-07T21:35:08.600Z,15.17
2018-11-07T21:37:37.229Z,15.73
2018-11-07T21:40:09.574Z,14.30
2018-11-07T21:42:38.157Z,14.00
2018-11-07T21:45:08.721Z,14.10
2018-11-07T21:47:37.247Z,15.13
2018-11-07T21:50:06.933Z,14.80
2018-11-07T21:52:35.259Z,14.73
2018-11-07T21:55:03.796Z,14.00
2018-11-07T21:57:32.148Z,14.57
2018-11-07T22:00:00.530Z,13.60
2018-11-07T22:02:28.842Z,16.53
2018-11-07T22:04:57.313Z,13.70
2018-11-07T22:07:25.766Z,15.23
2018-11-07T22:09:54.139Z,13.70
2018-11-07T22:12:22.580Z,16.00
2018-11-07T22:14:51.045Z,17.23
2018-11-07T22:17:19.500Z,13.93
2018-11-07T22:19:47.899Z,13.73
2018-11-07T22:22:16.256Z,13.90
2018-11-07T22:24:44.611Z,14.50
2018-11-07T22:27:12.978Z,14.53
2018-11-07T22:29:42.440Z,15.67
2018-11-07T22:32:10.761Z,13.50
2018-11-07T22:34:39.148Z,15.73
2018-11-07T22:37:07.532Z,14.90
2018-11-07T22:39:35.932Z,13.13
2018-11-07T22:42:04.523Z,16.73
2018-11-07T22:44:32.910Z,13.20
2018-11-07T22:47:01.233Z,14.37
2018-11-07T22:49:29.695Z,13.60
2018-11-07T22:51:59.569Z,14.07
2018-11-07T22:54:39.096Z,14.63
2018-11-07T23:00:21.112Z,12.27
2018-11-07T23:02:51.107Z,10.40
2018-11-07T23:05:19.549Z,8.87
2018-11-07T23:07:48.338Z,10.07
2018-11-07T23:10:16.718Z,10.50
2018-11-07T23:12:45.074Z,8.40
2018-11-07T23:15:18.925Z,7.93
2018-11-07T23:17:52.701Z,8.73
2018-11-07T23:20:21.086Z,9.90
2018-11-07T23:22:49.488Z,8.43
2018-11-07T23:27:52.732Z,10.63
2018-11-07T23:30:21.308Z,9.27
2018-11-07T23:32:49.741Z,11.10
2018-11-07T23:35:18.115Z,12.03
2018-11-07T23:37:46.934Z,10.87
2018-11-07T23:40:15.338Z,12.73
2018-11-07T23:42:44.029Z,9.63
2018-11-07T23:45:18.860Z,9.90
2018-11-07T23:48:05.096Z,11.00
2018-11-07T23:50:45.829Z,8.73
2018-11-07T23:53:22.835Z,8.87
2018-11-07T23:56:05.710Z,8.93
2018-11-07T23:58:34.087Z,7.77
